createdAt,value
2019-03-12T00:00:22.156Z,7.43
2019-03-12T00:03:09.898Z,7.46
2019-03-12T00:05:57.988Z,7.32
2019-03-12T00:08:45.467Z,7.40
2019-03-12T00:11:33.009Z,7.38
2019-03-12T00:14:20.619Z,7.47
2019-03-12T00:17:08.646Z,7.41
2019-03-12T00:19:56.281Z,7.14
2019-03-12T00:22:43.709Z,7.02
2019-03-12T00:25:31.346Z,7.22
2019-03-12T00:28:18.657Z,7.24
2019-03-12T00:31:06.380Z,7.34
2019-03-12T00:33:53.814Z,7.37
2019-03-12T00:36:41.635Z,7.36
2019-03-12T00:39:29.181Z,7.38
2019-03-12T00:42:17.020Z,7.27
2019-03-12T00:45:06.309Z,7.28
2019-03-12T00:47:54.034Z,7.16
2019-03-12T00:50:41.239Z,7.31
2019-03-12T00:53:28.854Z,7.37
2019-03-12T00:56:16.580Z,7.33
2019-03-12T00:59:04.823Z,7.38
2019-03-12T01:01:52.354Z,7.40
2019-03-12T01:04:39.877Z,7.38
2019-03-12T01:07:27.817Z,7.32
2019-03-12T01:10:16.880Z,7.35
2019-03-12T01:13:07.642Z,7.39
2019-03-12T01:15:54.699Z,7.42
2019-03-12T01:18:43.859Z,7.41
2019-03-12T01:21:31.481Z,7.43
2019-03-12T01:24:18.905Z,7.39
2019-03-12T01:27:06.331Z,7.45
2019-03-12T01:29:53.859Z,7.50
2019-03-12T01:32:41.488Z,7.32
2019-03-12T01:35:29.220Z,7.30
2019-03-12T01:38:16.643Z,7.36
2019-03-12T01:41:03.630Z,7.39
2019-03-12T01:43:51.385Z,7.36
2019-03-12T01:46:39.015Z,7.28
2019-03-12T01:49:26.233Z,7.28
2019-03-12T01:52:14.273Z,7.30
2019-03-12T01:55:01.698Z,7.29
2019-03-12T01:57:49.324Z,7.26
2019-03-12T02:00:40.333Z,7.18
2019-03-12T02:03:27.966Z,7.21
2019-03-12T02:06:15.385Z,7.17
2019-03-12T02:09:03.356Z,6.84
2019-03-12T02:11:50.541Z,6.76
2019-03-12T02:14:37.964Z,6.97
2019-03-12T02:17:25.286Z,7.09
2019-03-12T02:20:15.329Z,7.19
2019-03-12T02:23:02.694Z,7.19
2019-03-12T02:25:50.222Z,7.14
2019-03-12T02:28:38.055Z,7.11
2019-03-12T02:31:25.790Z,7.14
2019-03-12T02:34:13.010Z,6.89
2019-03-12T02:37:00.443Z,6.94
2019-03-12T02:39:48.163Z,6.96
2019-03-12T02:42:35.589Z,6.96
2019-03-12T02:45:23.019Z,6.97
2019-03-12T02:48:10.741Z,6.96
2019-03-12T02:50:58.369Z,6.79
2019-03-12T02:53:46.209Z,6.65
2019-03-12T02:56:33.406Z,6.72
2019-03-12T02:59:20.745Z,6.80
2019-03-12T03:02:07.965Z,6.88
2019-03-12T03:04:56.105Z,6.76
2019-03-12T03:07:48.049Z,6.88
2019-03-12T03:10:35.773Z,6.96
2019-03-12T03:13:23.293Z,6.86
2019-03-12T03:16:10.919Z,6.86
2019-03-12T03:18:58.653Z,6.61
2019-03-12T03:21:46.487Z,6.70
2019-03-12T03:24:33.713Z,6.68
2019-03-12T03:27:21.258Z,6.55
2019-03-12T03:30:12.065Z,6.51
2019-03-12T03:32:59.509Z,6.72
2019-03-12T03:35:47.304Z,6.82
2019-03-12T03:38:34.717Z,6.87
2019-03-12T03:41:21.946Z,6.97
2019-03-12T03:44:09.771Z,6.97
2019-03-12T03:46:56.892Z,6.92
2019-03-12T03:49:44.718Z,6.99
2019-03-12T03:52:32.361Z,7.08
2019-03-12T03:55:21.368Z,7.03
2019-03-12T03:58:08.732Z,7.04
2019-03-12T04:00:55.952Z,6.94
2019-03-12T04:03:43.783Z,6.87
2019-03-12T04:06:34.130Z,6.74
2019-03-12T04:09:19.560Z,6.72
2019-03-12T04:12:07.389Z,6.44
2019-03-12T04:14:55.428Z,6.56
2019-03-12T04:17:43.525Z,6.41
2019-03-12T04:20:31.301Z,5.84
2019-03-12T04:23:18.519Z,6.04
2019-03-12T04:26:06.559Z,6.21
2019-03-12T04:28:53.698Z,6.14
2019-03-12T04:31:41.272Z,6.17
2019-03-12T04:34:28.841Z,6.22
2019-03-12T04:37:16.254Z,6.08
2019-03-12T04:40:05.319Z,6.57
2019-03-12T04:42:52.945Z,6.74
2019-03-12T04:45:40.265Z,6.77
2019-03-12T04:48:27.896Z,6.64
2019-03-12T04:51:15.628Z,6.62
2019-03-12T04:54:03.155Z,6.71
2019-03-12T04:56:50.478Z,6.70
2019-03-12T04:59:38.103Z,6.77
2019-03-12T05:02:25.424Z,6.75
2019-03-12T05:05:13.168Z,6.83
2019-03-12T05:08:00.853Z,6.78
2019-03-12T05:10:48.104Z,6.43
2019-03-12T05:13:35.632Z,6.59
2019-03-12T05:16:23.448Z,6.81
2019-03-12T05:19:10.889Z,6.85
2019-03-12T05:21:59.647Z,6.68
2019-03-12T05:24:47.174Z,6.34
2019-03-12T05:27:34.806Z,6.54
2019-03-12T05:30:22.229Z,6.43
2019-03-12T05:33:09.962Z,6.46
2019-03-12T05:35:57.380Z,6.32
2019-03-12T05:38:45.158Z,6.41
2019-03-12T05:41:32.842Z,6.41
2019-03-12T05:44:20.267Z,6.48
2019-03-12T05:47:08.328Z,6.61
2019-03-12T05:49:56.239Z,6.75
2019-03-12T05:52:43.971Z,6.82
2019-03-12T05:55:31.395Z,6.20
2019-03-12T05:58:19.127Z,6.26
2019-03-12T06:01:06.960Z,6.39
2019-03-12T06:03:54.433Z,6.44
2019-03-12T06:06:41.910Z,6.46
2019-03-12T06:09:30.654Z,6.43
2019-03-12T06:12:18.100Z,6.36
2019-03-12T06:15:07.871Z,6.41
2019-03-12T06:17:55.605Z,5.34
2019-03-12T06:20:43.126Z,6.25
2019-03-12T06:23:30.660Z,6.50
2019-03-12T06:26:17.984Z,6.68
2019-03-12T06:29:05.301Z,6.72
2019-03-12T06:31:57.843Z,6.88
2019-03-12T06:34:47.008Z,6.90
2019-03-12T06:37:36.588Z,6.92
2019-03-12T06:40:40.903Z,6.92
2019-03-12T06:43:39.284Z,6.89
2019-03-12T06:46:31.108Z,6.92
2019-03-12T06:49:22.536Z,7.15
2019-03-12T06:52:14.066Z,7.03
2019-03-12T06:55:06.079Z,7.20
2019-03-12T06:58:19.821Z,7.18
2019-03-12T07:01:11.262Z,6.79
2019-03-12T07:04:16.988Z,6.68
2019-03-12T07:07:11.503Z,6.82
2019-03-12T07:10:09.147Z,6.84
2019-03-12T07:13:14.492Z,6.93
2019-03-12T07:16:16.765Z,7.12
2019-03-12T07:19:05.826Z,6.87
2019-03-12T07:21:57.653Z,6.87
2019-03-12T07:24:46.513Z,6.61
2019-03-12T07:27:50.826Z,7.06
2019-03-12T07:30:48.964Z,6.91
2019-03-12T07:33:41.491Z,6.50
2019-03-12T07:36:30.926Z,6.40
2019-03-12T07:39:20.188Z,6.82
2019-03-12T07:42:15.086Z,7.21
2019-03-12T07:45:06.912Z,7.30
2019-03-12T07:48:02.426Z,6.97
2019-03-12T07:50:57.432Z,7.12
2019-03-12T07:53:58.648Z,7.19
2019-03-12T07:56:53.669Z,6.96
2019-03-12T07:59:42.944Z,6.98
2019-03-12T08:02:32.531Z,7.25
2019-03-12T08:05:28.466Z,7.41
2019-03-12T08:08:23.316Z,7.58
2019-03-12T08:11:12.407Z,7.89
2019-03-12T08:14:16.314Z,7.55
2019-03-12T08:17:05.173Z,7.51
2019-03-12T08:20:00.411Z,7.59
2019-03-12T08:23:07.363Z,7.95
2019-03-12T08:25:56.018Z,7.83
2019-03-12T08:28:44.983Z,7.82
2019-03-12T08:31:45.915Z,8.16
2019-03-12T08:34:52.794Z,8.49
2019-03-12T08:37:58.039Z,8.74
2019-03-12T08:40:56.419Z,8.69
2019-03-12T08:43:45.789Z,8.90
2019-03-12T08:46:40.993Z,9.15
2019-03-12T08:49:29.954Z,9.20
2019-03-12T08:52:28.037Z,9.39
2019-03-12T08:55:35.213Z,9.94
2019-03-12T08:58:26.967Z,9.88
2019-03-12T09:01:15.595Z,10.01
2019-03-12T09:04:11.214Z,9.79
2019-03-12T09:07:00.376Z,10.12
2019-03-12T09:09:52.715Z,10.22
2019-03-12T09:12:41.673Z,10.67
2019-03-12T09:15:31.012Z,11.12
2019-03-12T09:18:22.972Z,11.03
2019-03-12T09:21:28.293Z,11.11
2019-03-12T09:24:17.488Z,10.92
2019-03-12T09:27:18.523Z,11.26
2019-03-12T09:30:20.489Z,10.89
2019-03-12T09:33:09.791Z,10.96
2019-03-12T09:35:59.027Z,11.54
2019-03-12T09:38:51.166Z,11.44
2019-03-12T09:41:42.782Z,11.72
2019-03-12T09:44:50.290Z,12.12
2019-03-12T09:47:39.234Z,11.96
2019-03-12T09:50:37.410Z,11.61
2019-03-12T09:53:29.443Z,12.02
2019-03-12T09:56:18.915Z,12.20
2019-03-12T09:59:19.959Z,12.57
2019-03-12T10:02:21.515Z,12.60
2019-03-12T10:05:29.214Z,12.38
2019-03-12T10:08:18.274Z,12.42
2019-03-12T10:11:07.628Z,12.19
2019-03-12T10:14:12.477Z,11.64
2019-03-12T10:17:22.942Z,11.41
2019-03-12T10:20:21.018Z,11.55
2019-03-12T10:23:12.846Z,11.85
2019-03-12T10:26:02.328Z,12.09
2019-03-12T10:29:09.911Z,11.99
2019-03-12T10:32:04.914Z,12.10
2019-03-12T10:35:06.170Z,12.56
2019-03-12T10:37:55.152Z,12.66
2019-03-12T10:40:53.002Z,12.91
2019-03-12T10:43:41.029Z,12.80
2019-03-12T10:46:30.090Z,12.68
2019-03-12T10:49:17.617Z,12.64
2019-03-12T10:52:05.452Z,12.11
2019-03-12T10:54:54.773Z,12.07
2019-03-12T10:57:42.536Z,11.82
2019-03-12T11:00:33.047Z,11.81
2019-03-12T11:03:20.677Z,12.14
2019-03-12T11:06:08.414Z,11.72
2019-03-12T11:08:55.834Z,11.88
2019-03-12T11:11:43.196Z,11.89
2019-03-12T11:14:30.660Z,12.23
2019-03-12T11:17:18.411Z,12.49
2019-03-12T11:20:14.647Z,12.91
2019-03-12T11:23:02.686Z,12.47
2019-03-12T11:25:50.125Z,12.65
2019-03-12T11:28:37.631Z,12.51
2019-03-12T11:31:25.362Z,12.80
2019-03-12T11:34:12.613Z,12.73
2019-03-12T11:37:00.316Z,12.15
2019-03-12T11:39:47.840Z,11.75
2019-03-12T11:42:35.473Z,11.74
2019-03-12T11:45:35.746Z,11.81
2019-03-12T11:48:12.628Z,11.81
2019-03-12T11:51:00.113Z,11.88
2019-03-12T11:53:47.753Z,11.15
2019-03-12T11:56:35.976Z,11.75
2019-03-12T11:59:23.815Z,11.92
2019-03-12T12:02:11.533Z,11.64
2019-03-12T12:05:01.226Z,11.78
2019-03-12T12:07:49.186Z,11.05
2019-03-12T12:10:36.774Z,11.18
2019-03-12T12:13:25.328Z,11.45
2019-03-12T12:16:12.955Z,11.71
2019-03-12T12:19:00.891Z,11.62
2019-03-12T12:21:48.113Z,12.16
2019-03-12T12:24:35.434Z,12.07
2019-03-12T12:27:23.062Z,12.39
2019-03-12T12:30:14.178Z,11.80
2019-03-12T12:33:01.902Z,11.44
2019-03-12T12:35:49.329Z,11.49
2019-03-12T12:38:37.058Z,11.54
2019-03-12T12:41:24.702Z,11.53
2019-03-12T12:44:12.225Z,12.16
2019-03-12T12:46:59.681Z,12.44
2019-03-12T12:49:47.478Z,12.53
2019-03-12T12:52:35.280Z,12.20
2019-03-12T12:55:22.935Z,12.01
2019-03-12T12:58:10.364Z,11.24
2019-03-12T13:00:57.803Z,11.07
2019-03-12T13:03:45.311Z,11.27
2019-03-12T13:06:33.142Z,11.55
2019-03-12T13:09:20.758Z,11.65
2019-03-12T13:12:08.607Z,11.75
2019-03-12T13:14:56.240Z,12.08
2019-03-12T13:17:43.762Z,11.95
2019-03-12T13:20:31.083Z,11.73
2019-03-12T13:23:18.667Z,11.33
2019-03-12T13:26:05.955Z,11.09
2019-03-12T13:28:53.953Z,11.04
2019-03-12T13:31:41.508Z,10.57
2019-03-12T13:34:29.126Z,10.62
2019-03-12T13:37:16.549Z,10.86
2019-03-12T13:40:07.491Z,11.23
2019-03-12T13:42:55.699Z,11.27
2019-03-12T13:45:43.667Z,11.34
2019-03-12T13:48:31.056Z,11.33
2019-03-12T13:51:18.645Z,11.56
2019-03-12T13:54:09.441Z,11.80
2019-03-12T13:56:55.275Z,11.98
2019-03-12T13:59:42.601Z,11.60
2019-03-12T14:02:30.125Z,11.72
2019-03-12T14:05:18.168Z,11.24
2019-03-12T14:08:05.931Z,11.33
2019-03-12T14:10:53.693Z,11.33
2019-03-12T14:13:41.439Z,11.54
2019-03-12T14:16:28.886Z,11.52
2019-03-12T14:19:16.516Z,11.29
2019-03-12T14:22:05.370Z,10.82
2019-03-12T14:24:53.314Z,10.38
2019-03-12T14:27:41.142Z,10.45
2019-03-12T14:30:29.077Z,10.01
2019-03-12T14:33:17.049Z,10.32
2019-03-12T14:36:04.316Z,9.99
2019-03-12T14:38:51.863Z,10.00
2019-03-12T14:41:39.288Z,10.54
2019-03-12T14:44:26.618Z,10.51
2019-03-12T14:47:14.256Z,10.41
2019-03-12T14:50:01.559Z,10.51
2019-03-12T14:52:51.648Z,10.64
2019-03-12T14:55:39.072Z,10.81
2019-03-12T14:58:26.307Z,10.89
2019-03-12T15:01:14.326Z,10.59
2019-03-12T15:04:01.666Z,10.45
2019-03-12T15:06:49.283Z,10.63
2019-03-12T15:09:37.009Z,10.55
2019-03-12T15:12:25.928Z,10.42
2019-03-12T15:15:14.430Z,10.42
2019-03-12T15:18:01.843Z,10.58
2019-03-12T15:20:49.267Z,10.74
2019-03-12T15:23:37.002Z,10.37
2019-03-12T15:26:24.626Z,10.35
2019-03-12T15:29:12.255Z,10.30
2019-03-12T15:32:04.452Z,10.18
2019-03-12T15:34:49.074Z,10.38
2019-03-12T15:37:36.476Z,10.73
2019-03-12T15:40:23.899Z,10.42
2019-03-12T15:43:11.221Z,10.36
2019-03-12T15:45:58.541Z,10.71
2019-03-12T15:48:46.127Z,10.52
2019-03-12T15:51:33.594Z,10.52
2019-03-12T15:54:21.432Z,10.22
2019-03-12T15:57:08.750Z,9.98
2019-03-12T15:59:56.484Z,10.08
2019-03-12T16:02:43.803Z,10.08
2019-03-12T16:05:31.332Z,9.97
2019-03-12T16:08:18.957Z,9.60
2019-03-12T16:11:06.791Z,9.67
2019-03-12T16:13:54.419Z,9.63
2019-03-12T16:16:41.638Z,9.80
2019-03-12T16:19:29.062Z,9.76
2019-03-12T16:22:16.487Z,9.53
2019-03-12T16:25:03.709Z,9.55
2019-03-12T16:27:51.439Z,9.65
2019-03-12T16:30:39.380Z,9.64
2019-03-12T16:33:26.805Z,9.72
2019-03-12T16:36:14.638Z,9.48
2019-03-12T16:39:02.158Z,9.23
2019-03-12T16:41:49.787Z,9.28
2019-03-12T16:44:37.417Z,9.57
2019-03-12T16:47:25.046Z,9.04
2019-03-12T16:50:14.623Z,9.18
2019-03-12T16:53:02.056Z,9.11
2019-03-12T16:55:49.676Z,8.80
2019-03-12T16:58:37.002Z,9.16
2019-03-12T17:01:24.831Z,9.20
2019-03-12T17:04:12.253Z,9.24
2019-03-12T17:07:00.107Z,9.33
2019-03-12T17:09:47.654Z,9.01
2019-03-12T17:12:35.344Z,9.12
2019-03-12T17:15:24.408Z,9.30
2019-03-12T17:18:11.833Z,9.07
2019-03-12T17:20:59.256Z,8.89
2019-03-12T17:23:46.786Z,8.83
2019-03-12T17:26:34.104Z,8.73
2019-03-12T17:29:21.646Z,8.70
2019-03-12T17:32:09.367Z,8.65
2019-03-12T17:34:57.195Z,8.60
2019-03-12T17:37:44.926Z,8.53
2019-03-12T17:40:33.377Z,8.55
2019-03-12T17:43:20.494Z,8.75
2019-03-12T17:46:07.928Z,8.84
2019-03-12T17:48:55.959Z,8.88
2019-03-12T17:51:43.740Z,8.56
2019-03-12T17:54:32.250Z,8.60
2019-03-12T17:57:20.071Z,8.68
2019-03-12T18:00:28.767Z,8.66
2019-03-12T18:03:16.295Z,8.52
2019-03-12T18:06:04.358Z,8.13
2019-03-12T18:08:51.477Z,7.37
2019-03-12T18:11:38.591Z,8.16
2019-03-12T18:14:26.940Z,8.21
2019-03-12T18:17:13.961Z,8.42
2019-03-12T18:20:01.685Z,8.53
2019-03-12T18:22:48.915Z,8.52
2019-03-12T18:25:41.764Z,8.46
2019-03-12T18:28:29.487Z,8.53
2019-03-12T18:31:17.320Z,8.57
2019-03-12T18:34:04.742Z,8.80
2019-03-12T18:36:52.583Z,8.99
2019-03-12T18:39:40.314Z,9.11
2019-03-12T18:42:30.367Z,9.24
2019-03-12T18:45:20.380Z,9.29
2019-03-12T18:48:08.111Z,9.62
2019-03-12T18:50:55.842Z,9.30
2019-03-12T18:53:43.068Z,9.29
2019-03-12T18:56:30.691Z,8.95
2019-03-12T18:59:18.833Z,8.85
2019-03-12T19:02:06.461Z,8.85
2019-03-12T19:04:53.885Z,9.05
2019-03-12T19:07:41.474Z,8.81
2019-03-12T19:10:28.835Z,8.88
2019-03-12T19:13:16.259Z,8.90
2019-03-12T19:16:04.439Z,8.95
2019-03-12T19:18:51.927Z,9.13
2019-03-12T19:21:39.454Z,8.81
2019-03-12T19:24:27.291Z,8.98
2019-03-12T19:27:14.714Z,8.80
2019-03-12T19:30:02.500Z,8.73
2019-03-12T19:32:54.990Z,8.91
2019-03-12T19:35:42.821Z,8.98
2019-03-12T19:38:30.559Z,8.78
2019-03-12T19:41:18.282Z,8.60
2019-03-12T19:44:05.832Z,8.70
2019-03-12T19:46:53.876Z,8.75
2019-03-12T19:49:41.582Z,8.70
2019-03-12T19:52:29.317Z,8.66
2019-03-12T19:55:29.535Z,8.42
2019-03-12T19:58:18.501Z,8.68
2019-03-12T20:01:06.438Z,8.51
2019-03-12T20:03:54.065Z,8.43
2019-03-12T20:06:41.313Z,8.54
2019-03-12T20:09:32.013Z,8.50
2019-03-12T20:12:31.657Z,8.74
2019-03-12T20:15:40.211Z,8.87
2019-03-12T20:19:03.589Z,8.71
2019-03-12T20:22:10.456Z,8.53
2019-03-12T20:25:13.658Z,8.95
2019-03-12T20:28:24.217Z,8.71
2019-03-12T20:31:26.697Z,8.56
2019-03-12T20:34:32.553Z,8.56
2019-03-12T20:37:43.018Z,8.49
2019-03-12T20:40:50.200Z,8.66
2019-03-12T20:44:06.912Z,8.55
2019-03-12T20:47:27.006Z,8.39
2019-03-12T20:50:36.339Z,8.44
2019-03-12T20:53:32.168Z,8.31
2019-03-12T20:56:51.570Z,8.34
2019-03-12T21:00:14.597Z,8.35
2019-03-12T21:03:34.171Z,8.38
2019-03-12T21:06:41.050Z,8.31
2019-03-12T21:10:05.341Z,8.36
2019-03-12T21:13:24.614Z,8.38
2019-03-12T21:16:33.843Z,8.22
2019-03-12T21:19:50.302Z,8.31
2019-03-12T21:22:43.818Z,8.43
2019-03-12T21:25:42.814Z,8.45
2019-03-12T21:28:33.213Z,8.72
2019-03-12T21:31:20.735Z,8.51
2019-03-12T21:34:08.463Z,8.76
2019-03-12T21:36:56.099Z,8.98
2019-03-12T21:39:54.414Z,9.08
2019-03-12T21:42:33.100Z,9.28
2019-03-12T21:45:21.341Z,9.28
2019-03-12T21:48:08.450Z,9.32
2019-03-12T21:50:55.669Z,9.25
2019-03-12T21:53:42.994Z,9.18
2019-03-12T21:56:30.212Z,9.15
2019-03-12T21:59:18.046Z,9.59
2019-03-12T22:02:05.728Z,9.89
2019-03-12T22:04:53.304Z,9.64
2019-03-12T22:07:40.829Z,9.50
2019-03-12T22:10:27.946Z,9.54
2019-03-12T22:13:15.374Z,9.55
2019-03-12T22:16:02.691Z,9.28
2019-03-12T22:18:49.914Z,9.15
2019-03-12T22:21:51.474Z,9.28
2019-03-12T22:24:39.300Z,9.24
2019-03-12T22:27:26.630Z,9.50
2019-03-12T22:30:20.164Z,9.80
2019-03-12T22:33:07.408Z,9.63
2019-03-12T22:35:54.958Z,9.33
2019-03-12T22:38:42.463Z,9.89
2019-03-12T22:41:30.209Z,10.12
2019-03-12T22:44:17.926Z,10.47
2019-03-12T22:47:05.659Z,10.40
2019-03-12T22:49:53.391Z,10.48
2019-03-12T22:52:40.709Z,10.21
2019-03-12T22:55:28.133Z,9.82
2019-03-12T22:58:15.946Z,9.34
2019-03-12T23:01:04.010Z,9.44
2019-03-12T23:03:51.540Z,9.60
2019-03-12T23:06:38.858Z,9.51
2019-03-12T23:09:26.589Z,9.63
2019-03-12T23:12:16.648Z,9.60
2019-03-12T23:15:02.867Z,9.53
2019-03-12T23:17:52.033Z,9.80
2019-03-12T23:20:39.805Z,9.85
2019-03-12T23:23:27.187Z,9.90
2019-03-12T23:26:14.661Z,10.09
2019-03-12T23:29:01.923Z,10.10
2019-03-12T23:31:48.693Z,9.86
2019-03-12T23:34:35.963Z,9.54
2019-03-12T23:37:24.002Z,9.69
2019-03-12T23:40:14.890Z,9.90
2019-03-12T23:43:02.232Z,9.94
2019-03-12T23:45:49.754Z,9.53
2019-03-12T23:48:36.975Z,9.54
2019-03-12T23:51:25.424Z,9.84
2019-03-12T23:54:13.053Z,10.09
2019-03-12T23:57:03.241Z,9.54
2019-03-12T23:59:50.766Z,9.64
